createdAt,value
2018-05-12T00:01:19.159Z,19.00
2018-05-12T00:03:46.769Z,19.93
2018-05-12T00:06:14.190Z,19.13
2018-05-12T00:08:41.623Z,19.00
2018-05-12T00:11:09.060Z,20.37
2018-05-12T00:13:36.517Z,21.30
2018-05-12T00:16:03.962Z,20.83
2018-05-12T00:18:31.417Z,20.90
2018-05-12T00:20:58.875Z,21.30
2018-05-12T00:23:26.301Z,20.07
2018-05-12T00:25:53.730Z,18.73
2018-05-12T00:28:21.181Z,21.23
2018-05-12T00:30:48.616Z,21.20
2018-05-12T00:33:16.058Z,21.80
2018-05-12T00:35:43.487Z,24.40
2018-05-12T00:38:10.931Z,23.93
2018-05-12T00:40:38.383Z,24.50
2018-05-12T00:43:05.940Z,24.73
2018-05-12T00:45:33.270Z,23.93
2018-05-12T00:48:00.711Z,23.37
2018-05-12T00:50:28.155Z,23.57
2018-05-12T00:52:56.355Z,22.27
2018-05-12T00:55:23.827Z,21.80
2018-05-12T00:57:51.269Z,21.47
2018-05-12T01:00:19.479Z,21.77
2018-05-12T01:02:46.939Z,22.10
2018-05-12T01:05:14.382Z,19.83
2018-05-12T01:07:41.835Z,20.43
2018-05-12T01:10:09.264Z,18.27
2018-05-12T01:12:36.721Z,17.43
2018-05-12T01:15:04.152Z,18.73
2018-05-12T01:17:31.594Z,17.13
2018-05-12T01:19:59.061Z,18.07
2018-05-12T01:22:26.502Z,17.33
2018-05-12T01:24:53.939Z,17.40
2018-05-12T01:27:22.142Z,16.60
2018-05-12T01:29:49.568Z,15.80
2018-05-12T01:32:17.010Z,15.90
2018-05-12T01:34:44.439Z,15.80
2018-05-12T01:37:11.894Z,15.10
2018-05-12T01:39:39.343Z,16.47
2018-05-12T01:42:06.771Z,16.07
2018-05-12T01:44:34.983Z,17.90
2018-05-12T01:47:02.425Z,17.97
2018-05-12T01:49:29.908Z,17.10
2018-05-12T01:51:57.352Z,18.00
2018-05-12T01:54:24.773Z,16.23
2018-05-12T01:56:52.269Z,18.20
2018-05-12T01:59:19.690Z,18.17
2018-05-12T02:01:47.132Z,18.50
2018-05-12T02:04:14.831Z,17.63
2018-05-12T02:06:42.264Z,18.67
2018-05-12T02:09:09.694Z,19.23
2018-05-12T02:11:37.154Z,19.73
2018-05-12T02:14:04.584Z,19.10
2018-05-12T02:16:32.035Z,18.97
2018-05-12T02:18:59.484Z,20.67
2018-05-12T02:21:26.922Z,18.13
2018-05-12T02:23:54.346Z,18.33
2018-05-12T02:26:22.312Z,20.23
2018-05-12T02:28:49.759Z,19.77
2018-05-12T02:31:17.181Z,18.20
2018-05-12T02:33:44.663Z,19.80
2018-05-12T02:36:12.092Z,19.30
2018-05-12T02:38:39.540Z,18.97
2018-05-12T02:41:06.985Z,19.50
2018-05-12T02:43:34.425Z,19.27
2018-05-12T02:46:01.880Z,20.90
2018-05-12T02:48:29.323Z,20.03
2018-05-12T02:50:56.793Z,20.23
2018-05-12T02:53:24.251Z,19.73
2018-05-12T02:55:51.700Z,23.03
2018-05-12T02:58:19.127Z,23.20
2018-05-12T03:00:46.566Z,21.60
2018-05-12T03:03:14.007Z,22.10
2018-05-12T03:05:42.249Z,21.90
2018-05-12T03:08:09.696Z,22.33
2018-05-12T03:10:37.136Z,19.70
2018-05-12T03:13:04.558Z,21.33
2018-05-12T03:15:32.002Z,18.80
2018-05-12T03:17:59.440Z,20.23
2018-05-12T03:20:27.647Z,19.90
2018-05-12T03:22:55.104Z,19.27
2018-05-12T03:25:22.555Z,18.93
2018-05-12T03:27:49.987Z,17.53
2018-05-12T03:30:17.430Z,17.93
2018-05-12T03:32:44.857Z,19.00
2018-05-12T03:35:12.291Z,17.63
2018-05-12T03:37:39.726Z,17.00
2018-05-12T03:40:07.171Z,18.53
2018-05-12T03:42:34.629Z,19.17
2018-05-12T03:45:02.044Z,18.57
2018-05-12T03:47:29.488Z,20.97
2018-05-12T03:49:56.930Z,20.70
2018-05-12T03:52:24.386Z,20.10
2018-05-12T03:54:51.816Z,20.47
2018-05-12T03:57:19.251Z,19.20
2018-05-12T03:59:46.690Z,22.40
2018-05-12T04:02:14.130Z,21.83
2018-05-12T04:04:53.295Z,23.00
2018-05-12T04:07:32.523Z,24.17
2018-05-12T04:10:11.757Z,23.40
2018-05-12T04:12:40.067Z,24.07
2018-05-12T04:15:07.513Z,25.27
2018-05-12T04:17:34.934Z,24.37
2018-05-12T04:20:02.393Z,26.50
2018-05-12T04:22:29.818Z,24.73
2018-05-12T04:24:57.280Z,24.37
2018-05-12T04:27:24.708Z,25.00
2018-05-12T04:29:52.165Z,24.80
2018-05-12T04:32:19.598Z,25.60
2018-05-12T04:34:47.024Z,26.87
2018-05-12T04:37:14.464Z,25.03
2018-05-12T04:39:41.905Z,24.93
2018-05-12T04:42:09.347Z,26.00
2018-05-12T04:44:37.539Z,24.07
2018-05-12T04:47:05.747Z,24.67
2018-05-12T04:49:33.227Z,24.43
2018-05-12T04:52:00.613Z,23.50
2018-05-12T04:54:28.065Z,22.30
2018-05-12T04:56:55.496Z,24.20
2018-05-12T04:59:22.924Z,23.57
2018-05-12T05:01:50.385Z,21.47
2018-05-12T05:04:17.817Z,23.87
2018-05-12T05:06:45.267Z,23.33
2018-05-12T05:09:12.711Z,20.13
2018-05-12T05:11:40.152Z,21.10
2018-05-12T05:14:07.605Z,21.17
2018-05-12T05:16:35.052Z,20.53
2018-05-12T05:19:02.499Z,21.43
2018-05-12T05:21:29.952Z,21.73
2018-05-12T05:23:57.385Z,23.50
2018-05-12T05:26:24.859Z,23.37
2018-05-12T05:28:52.298Z,22.73
2018-05-12T05:31:19.764Z,22.97
2018-05-12T05:33:47.188Z,24.13
2018-05-12T05:36:14.630Z,22.93
2018-05-12T05:38:42.075Z,22.40
2018-05-12T05:41:09.531Z,22.87
2018-05-12T05:43:36.960Z,21.87
2018-05-12T05:46:04.414Z,23.60
2018-05-12T05:48:31.894Z,23.67
2018-05-12T05:50:59.343Z,22.97
2018-05-12T05:53:27.561Z,22.37
2018-05-12T05:55:54.994Z,22.63
2018-05-12T05:58:22.450Z,24.03
2018-05-12T06:00:49.887Z,21.77
2018-05-12T06:03:17.327Z,19.90
2018-05-12T06:05:44.770Z,23.83
2018-05-12T06:08:12.203Z,23.63
2018-05-12T06:10:39.659Z,23.13
2018-05-12T06:13:07.091Z,23.27
2018-05-12T06:15:34.540Z,23.33
2018-05-12T06:18:02.032Z,22.57
2018-05-12T06:20:29.435Z,22.27
2018-05-12T06:22:56.911Z,22.60
2018-05-12T06:25:24.346Z,21.00
2018-05-12T06:27:51.876Z,23.40
2018-05-12T06:30:19.239Z,22.63
2018-05-12T06:32:46.725Z,20.80
2018-05-12T06:35:14.163Z,20.60
2018-05-12T06:37:41.631Z,20.83
2018-05-12T06:40:09.090Z,20.60
2018-05-12T06:42:36.543Z,20.43
2018-05-12T06:45:04.035Z,21.33
2018-05-12T06:47:31.479Z,22.03
2018-05-12T06:49:58.911Z,22.17
2018-05-12T06:52:27.207Z,20.43
2018-05-12T06:54:54.646Z,21.23
2018-05-12T06:57:22.142Z,21.57
2018-05-12T06:59:49.570Z,20.50
2018-05-12T07:02:17.035Z,21.37
2018-05-12T07:04:46.384Z,21.70
2018-05-12T07:07:13.822Z,22.37
2018-05-12T07:09:41.274Z,21.03
2018-05-12T07:12:08.727Z,19.87
2018-05-12T07:14:36.182Z,21.70
2018-05-12T07:17:03.629Z,20.67
2018-05-12T07:19:31.927Z,21.37
2018-05-12T07:21:59.278Z,21.47
2018-05-12T07:24:26.727Z,21.17
2018-05-12T07:26:54.183Z,21.13
2018-05-12T07:29:21.646Z,21.43
2018-05-12T07:31:49.078Z,20.87
2018-05-12T07:34:16.517Z,21.07
2018-05-12T07:36:44.000Z,22.13
2018-05-12T07:39:11.526Z,19.97
2018-05-12T07:41:38.955Z,22.63
2018-05-12T07:44:06.411Z,20.70
2018-05-12T07:46:33.869Z,21.97
2018-05-12T07:49:04.981Z,21.77
2018-05-12T07:51:32.645Z,22.73
2018-05-12T07:54:00.027Z,22.43
2018-05-12T07:56:27.470Z,23.43
2018-05-12T07:58:54.924Z,23.20
2018-05-12T08:01:23.107Z,24.10
2018-05-12T08:03:50.546Z,24.60
2018-05-12T08:06:17.998Z,26.13
2018-05-12T08:08:45.459Z,23.60
2018-05-12T08:11:12.901Z,24.80
2018-05-12T08:13:40.372Z,26.80
2018-05-12T08:16:07.851Z,27.93
2018-05-12T08:18:35.282Z,25.67
2018-05-12T08:21:03.478Z,27.80
2018-05-12T08:23:30.956Z,27.73
2018-05-12T08:25:58.451Z,24.67
2018-05-12T08:28:25.860Z,24.70
2018-05-12T08:30:53.299Z,25.80
2018-05-12T08:33:20.747Z,26.53
2018-05-12T08:35:48.847Z,27.80
2018-05-12T08:38:16.307Z,28.27
2018-05-12T08:40:43.759Z,28.17
2018-05-12T08:43:11.206Z,26.93
2018-05-12T08:45:38.666Z,30.43
2018-05-12T08:48:06.090Z,29.87
2018-05-12T08:50:33.566Z,26.33
2018-05-12T08:53:01.027Z,29.10
2018-05-12T08:55:28.459Z,24.20
2018-05-12T08:57:55.966Z,26.73
2018-05-12T09:00:23.391Z,24.17
2018-05-12T09:02:50.870Z,25.20
2018-05-12T09:05:18.327Z,20.08
2018-05-12T09:07:45.776Z,22.27
2018-05-12T09:10:13.234Z,20.17
2018-05-12T09:12:41.441Z,21.92
2018-05-12T09:15:08.880Z,20.15
2018-05-12T09:17:37.099Z,20.70
2018-05-12T09:20:04.543Z,19.17
2018-05-12T09:22:32.000Z,17.77
2018-05-12T09:24:59.432Z,17.23
2018-05-12T09:27:26.875Z,12.85
2018-05-12T09:29:54.333Z,12.73
2018-05-12T09:32:21.771Z,9.93
2018-05-12T09:34:49.223Z,9.30
2018-05-12T09:37:16.777Z,9.88
2018-05-12T09:39:44.131Z,7.30
2018-05-12T09:42:11.605Z,10.30
2018-05-12T09:44:39.765Z,7.60
2018-05-12T09:47:07.231Z,10.38
2018-05-12T09:49:34.667Z,9.73
2018-05-12T09:52:02.126Z,13.32
2018-05-12T09:54:29.579Z,11.45
2018-05-12T09:56:57.271Z,11.35
2018-05-12T09:59:24.808Z,9.80
2018-05-12T10:01:52.196Z,11.65
2018-05-12T10:04:19.655Z,12.43
2018-05-12T10:06:47.091Z,11.93
2018-05-12T10:09:14.564Z,10.57
2018-05-12T10:11:42.058Z,11.63
2018-05-12T10:14:10.302Z,13.82
2018-05-12T10:16:37.748Z,10.18
2018-05-12T10:19:05.187Z,11.85
2018-05-12T10:21:32.638Z,11.50
2018-05-12T10:24:00.843Z,7.93
2018-05-12T10:26:29.076Z,10.32
2018-05-12T10:28:56.520Z,9.80
2018-05-12T10:31:23.959Z,9.10
2018-05-12T10:33:52.194Z,10.10
2018-05-12T10:36:19.654Z,9.18
2018-05-12T10:38:47.137Z,10.55
2018-05-12T10:41:14.530Z,9.45
2018-05-12T10:43:41.997Z,7.47
2018-05-12T10:46:09.427Z,8.55
2018-05-12T10:48:36.856Z,7.95
2018-05-12T10:51:04.316Z,10.00
2018-05-12T10:53:31.770Z,8.70
2018-05-12T10:56:00.017Z,9.50
2018-05-12T10:58:27.450Z,9.50
2018-05-12T11:00:54.903Z,11.07
2018-05-12T11:03:22.346Z,10.23
2018-05-12T11:05:49.791Z,8.80
2018-05-12T11:08:17.221Z,10.15
2018-05-12T11:10:44.679Z,9.27
2018-05-12T11:13:12.161Z,10.55
2018-05-12T11:15:39.635Z,9.45
2018-05-12T11:18:07.106Z,13.73
2018-05-12T11:20:34.543Z,10.10
2018-05-12T11:23:01.998Z,11.00
2018-05-12T11:25:29.435Z,11.15
2018-05-12T11:27:56.902Z,9.50
2018-05-12T11:30:24.334Z,8.70
2018-05-12T11:32:51.856Z,9.85
2018-05-12T11:35:19.292Z,8.65
2018-05-12T11:37:46.765Z,7.78
2018-05-12T11:40:14.202Z,8.25
2018-05-12T11:42:41.650Z,7.15
2018-05-12T11:45:09.143Z,7.85
2018-05-12T11:47:36.615Z,6.47
2018-05-12T11:50:04.051Z,7.55
2018-05-12T11:52:32.272Z,9.15
2018-05-12T11:55:01.036Z,8.35
2018-05-12T11:57:28.499Z,8.65
2018-05-12T11:59:55.929Z,9.43
2018-05-12T12:02:23.479Z,7.90
2018-05-12T12:04:50.820Z,7.87
2018-05-12T12:07:18.366Z,6.65
2018-05-12T12:09:45.818Z,5.62
2018-05-12T12:12:13.256Z,5.55
2018-05-12T12:14:41.488Z,5.70
2018-05-12T12:17:08.937Z,5.43
2018-05-12T12:19:36.368Z,4.78
2018-05-12T12:22:03.828Z,4.80
2018-05-12T12:24:31.261Z,4.55
2018-05-12T12:26:58.720Z,4.87
2018-05-12T12:29:26.331Z,4.65
2018-05-12T12:31:54.850Z,4.43
2018-05-12T12:34:22.328Z,4.50
2018-05-12T12:36:49.777Z,4.25
2018-05-12T12:39:17.328Z,4.20
2018-05-12T12:41:44.748Z,3.75
2018-05-12T12:44:12.191Z,3.65
2018-05-12T12:46:40.412Z,3.70
2018-05-12T12:49:08.734Z,3.72
2018-05-12T12:51:36.324Z,3.47
2018-05-12T12:54:03.772Z,3.10
2018-05-12T12:56:31.194Z,4.00
2018-05-12T12:58:59.407Z,4.05
2018-05-12T13:01:26.865Z,3.70
2018-05-12T13:03:54.479Z,3.83
2018-05-12T13:06:21.959Z,3.75
2018-05-12T13:08:49.431Z,3.47
2018-05-12T13:11:17.208Z,4.10
2018-05-12T13:13:44.674Z,3.58
2018-05-12T13:16:12.146Z,3.67
2018-05-12T13:18:40.631Z,3.65
2018-05-12T13:21:08.098Z,3.58
2018-05-12T13:23:35.664Z,3.65
2018-05-12T13:26:03.106Z,3.47
2018-05-12T13:28:30.547Z,3.70
2018-05-12T13:30:58.059Z,3.60
2018-05-12T13:33:25.550Z,3.00
2018-05-12T13:35:52.972Z,3.55
2018-05-12T13:38:20.402Z,3.50
2018-05-12T13:40:48.086Z,3.33
2018-05-12T13:43:15.523Z,3.58
2018-05-12T13:45:43.000Z,3.70
2018-05-12T13:48:10.394Z,4.15
2018-05-12T13:50:37.871Z,4.40
2018-05-12T13:53:05.307Z,3.95
2018-05-12T13:55:32.831Z,3.70
2018-05-12T13:58:00.279Z,3.70
2018-05-12T14:00:27.734Z,3.97
2018-05-12T14:02:55.172Z,3.62
2018-05-12T14:05:22.614Z,3.78
2018-05-12T14:07:50.048Z,3.90
2018-05-12T14:10:17.511Z,3.65
2018-05-12T14:12:45.707Z,3.60
2018-05-12T14:15:13.574Z,3.47
2018-05-12T14:17:41.007Z,3.83
2018-05-12T14:20:08.439Z,3.37
2018-05-12T14:22:35.899Z,3.90
2018-05-12T14:25:03.374Z,3.33
2018-05-12T14:27:30.812Z,3.25
2018-05-12T14:29:58.258Z,3.40
2018-05-12T14:32:25.754Z,2.83
2018-05-12T14:34:53.164Z,3.00
2018-05-12T14:37:20.871Z,2.60
2018-05-12T14:39:48.476Z,3.03
2018-05-12T14:42:15.911Z,2.67
2018-05-12T14:44:43.381Z,2.60
2018-05-12T14:47:10.826Z,2.80
2018-05-12T14:49:38.251Z,2.80
2018-05-12T14:52:06.624Z,2.60
2018-05-12T14:54:34.066Z,2.70
2018-05-12T14:57:01.520Z,2.95
2018-05-12T14:59:29.043Z,2.95
2018-05-12T15:01:56.461Z,3.10
2018-05-12T15:04:23.908Z,2.92
2018-05-12T15:06:51.371Z,3.17
2018-05-12T15:09:18.819Z,2.80
2018-05-12T15:11:47.033Z,3.10
2018-05-12T15:14:14.472Z,3.17
2018-05-12T15:16:42.685Z,3.62
2018-05-12T15:19:10.116Z,3.40
2018-05-12T15:21:37.556Z,4.20
2018-05-12T15:24:05.002Z,3.20
2018-05-12T15:26:32.443Z,3.08
2018-05-12T15:28:59.997Z,3.37
2018-05-12T15:31:27.411Z,3.20
2018-05-12T15:33:54.851Z,3.33
2018-05-12T15:36:22.369Z,3.47
2018-05-12T15:38:51.843Z,3.22
2018-05-12T15:41:19.299Z,3.80
2018-05-12T15:43:46.792Z,3.15
2018-05-12T15:46:14.508Z,3.10
2018-05-12T15:48:42.724Z,3.35
2018-05-12T15:51:10.177Z,3.30
2018-05-12T15:53:38.397Z,3.08
2018-05-12T15:56:05.876Z,3.25
2018-05-12T15:58:33.346Z,3.00
2018-05-12T16:01:00.828Z,3.03
2018-05-12T16:03:28.330Z,3.50
2018-05-12T16:05:55.764Z,3.75
2018-05-12T16:08:23.215Z,3.33
2018-05-12T16:10:51.621Z,3.90
2018-05-12T16:13:19.056Z,4.00
2018-05-12T16:15:46.492Z,4.10
2018-05-12T16:18:13.936Z,4.15
2018-05-12T16:20:42.143Z,3.97
2018-05-12T16:23:09.590Z,4.47
2018-05-12T16:25:37.048Z,4.45
2018-05-12T16:28:04.497Z,4.37
2018-05-12T16:30:31.931Z,3.92
2018-05-12T16:32:59.390Z,4.37
2018-05-12T16:35:26.847Z,4.15
2018-05-12T16:37:54.270Z,4.10
2018-05-12T16:40:21.718Z,4.55
2018-05-12T16:42:49.164Z,5.62
2018-05-12T16:45:16.601Z,4.75
2018-05-12T16:47:44.070Z,4.85
2018-05-12T16:50:11.502Z,5.00
2018-05-12T16:52:38.977Z,4.80
2018-05-12T16:55:06.448Z,4.68
2018-05-12T16:57:33.878Z,5.30
2018-05-12T17:00:01.328Z,4.85
2018-05-12T17:02:29.046Z,5.12
2018-05-12T17:04:56.391Z,4.95
2018-05-12T17:07:23.822Z,5.20
2018-05-12T17:09:51.283Z,5.37
2018-05-12T17:12:18.748Z,5.32
2018-05-12T17:14:46.155Z,5.17
2018-05-12T17:17:13.587Z,4.70
2018-05-12T17:19:41.027Z,5.40
2018-05-12T17:22:08.754Z,5.27
2018-05-12T17:24:36.193Z,5.30
2018-05-12T17:27:03.626Z,5.00
2018-05-12T17:29:31.376Z,5.40
2018-05-12T17:31:58.828Z,5.17
2018-05-12T17:34:26.245Z,4.63
2018-05-12T17:36:53.878Z,5.50
2018-05-12T17:39:21.298Z,5.20
2018-05-12T17:41:48.735Z,5.90
2018-05-12T17:44:16.569Z,5.80
2018-05-12T17:46:43.938Z,5.83
2018-05-12T17:49:11.382Z,6.97
2018-05-12T17:51:38.887Z,7.00
2018-05-12T17:54:06.322Z,10.73
2018-05-12T17:56:33.781Z,8.63
2018-05-12T17:59:01.210Z,6.97
2018-05-12T18:01:28.643Z,5.93
2018-05-12T18:03:56.349Z,5.90
2018-05-12T18:06:23.772Z,5.50
2018-05-12T18:08:51.261Z,5.73
2018-05-12T18:11:18.978Z,5.83
2018-05-12T18:13:46.405Z,5.73
2018-05-12T18:16:13.839Z,6.07
2018-05-12T18:18:41.329Z,5.90
2018-05-12T18:21:08.751Z,6.67
2018-05-12T18:23:36.462Z,6.57
2018-05-12T18:26:03.890Z,6.83
2018-05-12T18:28:31.330Z,6.77
2018-05-12T18:30:59.547Z,6.90
2018-05-12T18:33:26.974Z,6.47
2018-05-12T18:35:54.729Z,6.30
2018-05-12T18:38:23.095Z,6.40
2018-05-12T18:40:50.532Z,6.37
2018-05-12T18:43:19.005Z,6.37
2018-05-12T18:45:48.258Z,6.33
2018-05-12T18:48:15.713Z,7.37
2018-05-12T18:50:44.009Z,7.13
2018-05-12T18:53:12.578Z,6.77
2018-05-12T18:55:40.007Z,6.70
2018-05-12T18:58:07.501Z,5.90
2018-05-12T19:00:35.095Z,5.97
2018-05-12T19:03:02.619Z,6.27
2018-05-12T19:05:31.794Z,6.37
2018-05-12T19:08:01.188Z,6.17
2018-05-12T19:10:28.801Z,6.27
2018-05-12T19:12:56.238Z,5.60
2018-05-12T19:15:23.981Z,6.27
2018-05-12T19:17:51.471Z,6.80
2018-05-12T19:20:18.906Z,6.50
2018-05-12T19:22:46.340Z,6.67
2018-05-12T19:25:13.779Z,6.30
2018-05-12T19:27:41.228Z,7.03
2018-05-12T19:30:08.667Z,8.77
2018-05-12T19:32:36.167Z,9.00
2018-05-12T19:35:03.763Z,8.10
2018-05-12T19:37:31.235Z,7.97
2018-05-12T19:39:59.435Z,9.30
2018-05-12T19:42:27.186Z,8.63
2018-05-12T19:44:54.645Z,9.13
2018-05-12T19:47:23.140Z,9.00
2018-05-12T19:49:50.583Z,8.87
2018-05-12T19:52:18.262Z,7.23
2018-05-12T19:54:45.690Z,6.83
2018-05-12T19:57:13.128Z,7.50
2018-05-12T19:59:40.963Z,6.73
2018-05-12T20:02:08.416Z,7.27
2018-05-12T20:04:35.875Z,9.67
2018-05-12T20:07:03.316Z,17.37
2018-05-12T20:09:30.750Z,17.03
2018-05-12T20:11:58.230Z,12.60
2018-05-12T20:14:25.664Z,9.77
2018-05-12T20:16:53.118Z,7.03
2018-05-12T20:19:20.545Z,7.27
2018-05-12T20:21:47.979Z,7.70
2018-05-12T20:24:16.176Z,6.20
2018-05-12T20:26:44.533Z,6.83
2018-05-12T20:29:11.959Z,6.33
2018-05-12T20:31:39.402Z,7.73
2018-05-12T20:34:07.051Z,8.47
2018-05-12T20:36:34.533Z,8.13
2018-05-12T20:39:01.971Z,8.00
2018-05-12T20:41:29.479Z,8.23
2018-05-12T20:43:56.902Z,7.70
2018-05-12T20:46:24.339Z,6.90
2018-05-12T20:48:52.098Z,6.13
2018-05-12T20:51:20.292Z,6.07
2018-05-12T20:53:47.736Z,6.10
2018-05-12T20:56:15.935Z,5.23
2018-05-12T20:58:43.360Z,5.50
2018-05-12T21:01:10.799Z,5.97
2018-05-12T21:03:38.247Z,5.50
2018-05-12T21:06:05.676Z,5.53
2018-05-12T21:08:33.879Z,5.10
2018-05-12T21:11:01.317Z,5.00
2018-05-12T21:13:28.771Z,5.47
2018-05-12T21:15:56.194Z,5.60
2018-05-12T21:18:23.941Z,5.13
2018-05-12T21:20:52.323Z,5.30
2018-05-12T21:23:20.514Z,5.10
2018-05-12T21:25:48.008Z,4.97
2018-05-12T21:28:15.467Z,5.47
2018-05-12T21:30:42.914Z,5.30
2018-05-12T21:33:10.370Z,5.30
2018-05-12T21:35:37.826Z,5.30
2018-05-12T21:38:05.331Z,5.60
2018-05-12T21:40:32.722Z,5.40
2018-05-12T21:43:00.152Z,5.40
2018-05-12T21:45:27.582Z,4.97
2018-05-12T21:47:55.799Z,5.20
2018-05-12T21:50:24.007Z,5.30
2018-05-12T21:52:51.437Z,5.10
2018-05-12T21:55:18.886Z,4.90
2018-05-12T21:57:46.319Z,5.33
2018-05-12T22:00:13.751Z,4.90
2018-05-12T22:02:41.206Z,4.63
2018-05-12T22:05:09.642Z,4.47
2018-05-12T22:07:37.847Z,5.17
2018-05-12T22:10:05.313Z,5.00
2018-05-12T22:12:32.742Z,5.10
2018-05-12T22:15:00.180Z,5.13
2018-05-12T22:17:27.626Z,5.70
2018-05-12T22:19:55.052Z,5.90
2018-05-12T22:22:22.488Z,5.40
2018-05-12T22:24:49.916Z,6.20
2018-05-12T22:27:18.168Z,6.27
2018-05-12T22:29:45.910Z,6.10
2018-05-12T22:32:14.345Z,6.30
2018-05-12T22:34:42.550Z,6.33
2018-05-12T22:37:10.320Z,6.77
2018-05-12T22:39:37.750Z,5.40
2018-05-12T22:42:05.187Z,5.20
2018-05-12T22:44:32.633Z,5.23
2018-05-12T22:47:00.075Z,5.70
2018-05-12T22:49:27.514Z,5.50
2018-05-12T22:51:54.966Z,5.60
2018-05-12T22:54:22.410Z,6.73
2018-05-12T22:56:50.628Z,5.60
2018-05-12T22:59:18.088Z,5.90
2018-05-12T23:01:45.520Z,5.70
2018-05-12T23:04:12.958Z,5.30
2018-05-12T23:06:40.414Z,5.50
2018-05-12T23:09:07.847Z,5.87
2018-05-12T23:11:35.278Z,6.20
2018-05-12T23:14:03.032Z,6.17
2018-05-12T23:16:30.463Z,5.90
2018-05-12T23:18:57.915Z,6.40
2018-05-12T23:21:25.367Z,6.20
2018-05-12T23:23:52.801Z,6.10
2018-05-12T23:26:20.254Z,6.37
2018-05-12T23:28:47.682Z,6.60
2018-05-12T23:31:15.380Z,6.97
2018-05-12T23:33:42.812Z,6.43
2018-05-12T23:36:11.044Z,6.40
2018-05-12T23:38:38.471Z,6.50
2018-05-12T23:41:05.914Z,7.00
2018-05-12T23:43:33.358Z,6.60
2018-05-12T23:46:01.750Z,6.50
2018-05-12T23:48:29.963Z,6.33
2018-05-12T23:50:57.445Z,7.07
2018-05-12T23:53:25.647Z,7.77
2018-05-12T23:55:53.070Z,7.67
2018-05-12T23:58:20.519Z,7.67
